Time;durP1;ratioP1;P1;durP2;ratioP2;P2;SDS_P1;SDS_P2;PMS_P1;PMS_P2;Temp;Humidity;BMP_temperature;BMP_pressure;BME280_temperature;BME280_humidity;BME280_pressure;Samples;Min_cycle;Max_cycle;Signal;HPM_P1;HPM_P2
2021/09/23 00:00:04;;;;;;;21.52;13.52;;;11.40;87.20;;;;;;5054274;28;20088;-36
2021/09/23 00:05:19;;;;;;;18.63;13.45;;;11.40;87.20;;;;;;5054575;28;20086;-37
2021/09/23 00:07:47;;;;;;;26.35;14.77;;;11.40;87.20;;;;;;5054150;28;20466;-36
2021/09/23 00:10:17;;;;;;;22.75;15.10;;;11.30;87.20;;;;;;5054099;28;20025;-36
2021/09/23 00:12:43;;;;;;;25.80;14.73;;;11.30;87.20;;;;;;5054068;28;20022;-36
2021/09/23 00:15:10;;;;;;;26.50;16.00;;;11.30;87.20;;;;;;5053912;28;20040;-37
2021/09/23 00:17:35;;;;;;;24.10;15.43;;;11.30;87.20;;;;;;5053492;28;20056;-36
2021/09/23 00:20:01;;;;;;;23.10;14.23;;;11.20;87.60;;;;;;5052546;28;20385;-36
2021/09/23 00:22:26;;;;;;;23.75;15.43;;;11.20;87.90;;;;;;5054003;28;20037;-37
2021/09/23 00:24:52;;;;;;;28.52;15.02;;;11.10;88.00;;;;;;5053644;28;20032;-37
2021/09/23 00:27:18;;;;;;;25.85;15.27;;;11.10;88.00;;;;;;5053765;28;20121;-37
2021/09/23 00:29:43;;;;;;;23.27;16.20;;;11.10;88.00;;;;;;5054056;28;20475;-36
2021/09/23 00:32:09;;;;;;;22.05;15.13;;;11.10;87.90;;;;;;5053605;28;20029;-37
2021/09/23 00:34:34;;;;;;;21.17;15.30;;;11.10;88.00;;;;;;5053530;28;20021;-36
2021/09/23 00:37:00;;;;;;;21.33;15.18;;;11.10;87.90;;;;;;5053752;28;20025;-36
2021/09/23 00:39:26;;;;;;;29.48;15.25;;;11.10;87.90;;;;;;5053384;28;20036;-36
2021/09/23 00:41:52;;;;;;;29.08;17.85;;;11.20;87.60;;;;;;5053606;28;20048;-36
2021/09/23 00:44:20;;;;;;;32.40;19.15;;;11.20;87.60;;;;;;5053326;28;20358;-36
2021/09/23 00:46:48;;;;;;;32.65;19.83;;;11.20;87.20;;;;;;5053346;28;20035;-36
2021/09/23 00:49:14;;;;;;;39.33;21.48;;;11.10;87.60;;;;;;5053496;28;20508;-37
2021/09/23 00:51:39;;;;;;;41.30;22.20;;;11.10;88.00;;;;;;5053205;28;20418;-37
2021/09/23 00:54:05;;;;;;;33.90;20.30;;;11.20;88.20;;;;;;5053254;28;20024;-36
2021/09/23 00:56:32;;;;;;;35.50;21.27;;;11.30;87.70;;;;;;5053132;28;20039;-37
2021/09/23 00:58:58;;;;;;;35.50;20.98;;;11.30;87.70;;;;;;5053226;28;20052;-37
2021/09/23 01:01:24;;;;;;;33.88;22.67;;;11.30;87.40;;;;;;5052838;28;20029;-37
2021/09/23 01:03:50;;;;;;;33.05;21.70;;;11.30;86.80;;;;;;5052797;28;20041;-37
2021/09/23 01:06:16;;;;;;;38.03;22.30;;;11.30;86.90;;;;;;5053220;28;20063;-37
2021/09/23 01:08:55;;;;;;;38.33;23.20;;;11.50;87.00;;;;;;5051477;28;20025;-37
2021/09/23 01:11:22;;;;;;;39.42;24.92;;;11.60;86.90;;;;;;5052948;28;20461;-37
2021/09/23 01:13:47;;;;;;;36.13;22.00;;;11.60;86.70;;;;;;5052913;28;20120;-37
2021/09/23 01:16:13;;;;;;;41.72;23.15;;;11.50;86.30;;;;;;5052790;28;20056;-37
2021/09/23 01:18:40;;;;;;;34.88;22.02;;;11.40;87.10;;;;;;5052343;28;20045;-36
2021/09/23 01:21:06;;;;;;;48.40;24.48;;;11.30;87.30;;;;;;5052660;28;20029;-36
2021/09/23 01:23:39;;;;;;;43.53;24.02;;;11.40;87.10;;;;;;5052463;28;20496;-36
2021/09/23 01:26:28;;;;;;;41.42;25.30;;;11.50;86.90;;;;;;5052206;28;20111;-36
2021/09/23 01:28:54;;;;;;;37.35;23.58;;;11.50;86.80;;;;;;5052411;28;20380;-36
2021/09/23 01:31:20;;;;;;;35.58;23.77;;;11.40;86.80;;;;;;5052693;28;20100;-36
2021/09/23 01:33:46;;;;;;;43.95;25.00;;;11.30;87.00;;;;;;5052625;28;20020;-36
2021/09/23 01:36:12;;;;;;;39.20;21.92;;;11.30;87.30;;;;;;5051012;28;20025;-37
2021/09/23 01:38:37;;;;;;;43.30;21.83;;;11.20;87.40;;;;;;5052615;28;20021;-36
2021/09/23 01:41:03;;;;;;;32.72;20.95;;;11.10;87.40;;;;;;5051170;28;20385;-36
2021/09/23 01:43:29;;;;;;;31.77;19.52;;;11.00;87.60;;;;;;5052524;28;20037;-36
2021/09/23 01:45:54;;;;;;;30.23;19.00;;;10.90;87.70;;;;;;5051232;28;20032;-36
2021/09/23 01:48:20;;;;;;;32.78;18.17;;;10.80;87.50;;;;;;5052479;28;20365;-36
2021/09/23 01:50:45;;;;;;;24.92;16.70;;;10.80;87.70;;;;;;5053257;28;20025;-36
2021/09/23 01:53:11;;;;;;;25.48;16.08;;;10.70;87.70;;;;;;5051148;28;20029;-36
2021/09/23 01:55:37;;;;;;;27.42;17.52;;;10.60;87.60;;;;;;5052636;28;20496;-37
2021/09/23 01:58:02;;;;;;;26.05;16.63;;;10.60;87.90;;;;;;5052268;28;20087;-37
2021/09/23 02:00:28;;;;;;;26.00;17.42;;;10.60;87.90;;;;;;5052641;28;20021;-36
2021/09/23 02:02:54;;;;;;;31.42;17.58;;;10.60;87.90;;;;;;5052492;28;20044;-36
2021/09/23 02:05:20;;;;;;;28.50;19.33;;;10.70;87.70;;;;;;5052427;28;20098;-36
2021/09/23 02:07:46;;;;;;;29.40;17.38;;;10.60;87.70;;;;;;5052362;28;20029;-36
2021/09/23 02:10:12;;;;;;;32.05;19.05;;;10.60;87.70;;;;;;5052219;28;20491;-37
2021/09/23 02:12:38;;;;;;;33.08;19.08;;;10.60;87.90;;;;;;5052536;28;20511;-36
2021/09/23 02:15:04;;;;;;;34.63;18.25;;;10.50;88.00;;;;;;5052206;28;20021;-36
2021/09/23 02:17:30;;;;;;;29.95;18.05;;;10.60;88.00;;;;;;5052119;28;20548;-36
2021/09/23 02:19:56;;;;;;;33.00;19.40;;;10.60;88.00;;;;;;5052072;28;20059;-36
2021/09/23 02:22:22;;;;;;;26.65;18.42;;;10.60;88.00;;;;;;5052471;28;20029;-36
2021/09/23 02:24:48;;;;;;;33.78;18.33;;;10.60;88.10;;;;;;5051966;28;20025;-36
2021/09/23 02:27:14;;;;;;;32.00;19.00;;;10.60;88.00;;;;;;5052321;28;20017;-36
2021/09/23 02:29:40;;;;;;;32.40;19.73;;;10.60;87.90;;;;;;5052377;28;20056;-36
2021/09/23 02:32:07;;;;;;;33.22;19.45;;;10.60;87.90;;;;;;5052168;28;20595;-36
2021/09/23 02:34:32;;;;;;;32.22;19.17;;;10.60;88.00;;;;;;5052040;28;20032;-36
2021/09/23 02:36:58;;;;;;;38.58;19.05;;;10.60;87.80;;;;;;5051995;28;20532;-37
2021/09/23 02:39:24;;;;;;;33.22;19.05;;;10.60;87.80;;;;;;5052362;28;20103;-36
2021/09/23 02:41:50;;;;;;;30.40;18.98;;;10.60;87.90;;;;;;5054553;28;20090;-36
2021/09/23 02:44:16;;;;;;;34.67;21.05;;;10.60;87.90;;;;;;5055654;28;20032;-36
2021/09/23 02:46:41;;;;;;;29.38;19.70;;;10.60;87.80;;;;;;5055739;28;20021;-36
2021/09/23 02:49:07;;;;;;;35.72;19.50;;;10.60;88.00;;;;;;5055629;28;20419;-36
2021/09/23 02:51:33;;;;;;;32.35;20.23;;;10.60;87.90;;;;;;5056033;28;20020;-37
2021/09/23 02:53:58;;;;;;;31.35;18.67;;;10.60;87.80;;;;;;5055869;28;20029;-36
2021/09/23 02:56:24;;;;;;;36.10;22.25;;;10.60;87.70;;;;;;5055482;28;20029;-36
2021/09/23 02:58:50;;;;;;;40.85;21.80;;;10.40;88.20;;;;;;5055425;28;20358;-37
2021/09/23 03:01:17;;;;;;;35.67;20.55;;;10.40;88.90;;;;;;5055326;28;20025;-36
2021/09/23 03:03:43;;;;;;;34.22;20.05;;;10.40;89.10;;;;;;5055106;28;20025;-36
2021/09/23 03:06:09;;;;;;;34.35;20.35;;;10.30;88.90;;;;;;5055547;28;20036;-37
2021/09/23 03:08:35;;;;;;;35.35;22.50;;;10.30;89.00;;;;;;5055450;28;20024;-36
2021/09/23 03:11:00;;;;;;;34.67;20.58;;;10.30;89.10;;;;;;5055434;28;20028;-36
2021/09/23 03:13:26;;;;;;;40.33;20.50;;;10.30;89.10;;;;;;5055060;28;20029;-36
2021/09/23 03:15:52;;;;;;;38.17;20.77;;;10.40;89.10;;;;;;5055003;28;20056;-36
2021/09/23 03:18:17;;;;;;;31.13;20.55;;;10.50;88.80;;;;;;5055071;28;20481;-36
2021/09/23 03:20:45;;;;;;;37.10;23.27;;;10.60;88.70;;;;;;5055153;28;20025;-36
2021/09/23 03:23:12;;;;;;;35.50;22.17;;;10.60;88.90;;;;;;5054773;28;20037;-36
2021/09/23 03:25:38;;;;;;;38.78;22.60;;;10.70;89.10;;;;;;5054685;28;20031;-36
2021/09/23 03:28:03;;;;;;;37.95;22.58;;;10.80;89.10;;;;;;5054828;28;20124;-36
2021/09/23 03:30:29;;;;;;;38.35;22.30;;;11.00;88.70;;;;;;5054736;28;20059;-36
2021/09/23 03:32:55;;;;;;;37.38;21.45;;;11.00;88.20;;;;;;5055080;28;20029;-36
2021/09/23 03:35:22;;;;;;;39.15;20.83;;;11.00;88.00;;;;;;5054756;28;20033;-36
2021/09/23 03:37:48;;;;;;;35.72;22.20;;;10.90;88.30;;;;;;5055060;28;20078;-36
2021/09/23 03:40:14;;;;;;;34.42;22.10;;;10.90;88.40;;;;;;5055445;28;20465;-36
2021/09/23 03:42:40;;;;;;;37.47;20.98;;;10.90;88.40;;;;;;5054747;28;20032;-36
2021/09/23 03:45:07;;;;;;;35.60;20.40;;;11.10;88.30;;;;;;5054533;28;20437;-36
2021/09/23 03:47:33;;;;;;;31.20;19.58;;;11.00;88.40;;;;;;5054247;28;20451;-36
2021/09/23 03:49:58;;;;;;;32.38;20.35;;;10.90;88.40;;;;;;5054310;28;20032;-36
2021/09/23 03:52:24;;;;;;;32.60;20.15;;;11.10;88.50;;;;;;5053634;28;20462;-36
2021/09/23 03:54:50;;;;;;;33.28;19.02;;;11.00;88.40;;;;;;5054185;28;20102;-36
2021/09/23 03:57:16;;;;;;;36.08;19.70;;;11.10;88.10;;;;;;5053949;28;20029;-36
2021/09/23 03:59:42;;;;;;;33.25;20.60;;;11.20;87.70;;;;;;5054476;28;20079;-36
2021/09/23 04:02:07;;;;;;;33.05;19.40;;;11.20;87.60;;;;;;5054035;28;20025;-37
2021/09/23 04:04:33;;;;;;;33.47;19.95;;;11.20;87.70;;;;;;5053906;28;20473;-36
2021/09/23 04:06:59;;;;;;;35.25;20.35;;;11.20;87.90;;;;;;5053822;28;20426;-36
2021/09/23 04:09:24;;;;;;;39.28;21.33;;;11.20;87.90;;;;;;5054022;28;20456;-36
2021/09/23 04:11:50;;;;;;;40.78;21.02;;;11.20;87.80;;;;;;5053802;28;20020;-36
2021/09/23 04:14:16;;;;;;;36.15;21.13;;;11.10;87.90;;;;;;5054118;28;20028;-36
2021/09/23 04:16:41;;;;;;;31.48;19.52;;;11.20;87.90;;;;;;5054090;28;20033;-37
2021/09/23 04:19:07;;;;;;;32.78;19.52;;;11.10;88.20;;;;;;5053404;28;20083;-37
2021/09/23 04:21:33;;;;;;;31.60;20.30;;;11.10;88.20;;;;;;5053467;28;20025;-37
2021/09/23 04:23:58;;;;;;;36.72;20.70;;;11.00;88.60;;;;;;5053986;28;20032;-37
2021/09/23 04:26:24;;;;;;;34.97;21.92;;;11.30;88.20;;;;;;5052098;28;20029;-36
2021/09/23 04:28:50;;;;;;;41.35;22.55;;;11.30;87.80;;;;;;5054037;28;20021;-36
2021/09/23 04:31:16;;;;;;;36.25;21.35;;;11.30;88.00;;;;;;5053789;28;20025;-36
2021/09/23 04:33:41;;;;;;;33.90;20.20;;;11.30;88.00;;;;;;5053467;28;20032;-37
2021/09/23 04:36:07;;;;;;;30.38;20.20;;;11.20;88.20;;;;;;5052187;28;20025;-36
2021/09/23 04:38:33;;;;;;;38.80;20.65;;;11.10;88.70;;;;;;5053423;28;20478;-36
2021/09/23 04:40:58;;;;;;;31.92;20.38;;;11.10;88.90;;;;;;5053490;28;20032;-36
2021/09/23 04:43:25;;;;;;;34.05;20.08;;;11.10;88.40;;;;;;5053507;28;20377;-37
2021/09/23 04:45:51;;;;;;;37.08;21.42;;;11.00;89.00;;;;;;5053389;28;20064;-36
2021/09/23 04:48:16;;;;;;;37.55;20.90;;;11.00;88.70;;;;;;5053230;28;20397;-36
2021/09/23 04:50:42;;;;;;;39.38;21.48;;;11.00;88.70;;;;;;5053377;28;20100;-36
2021/09/23 04:53:07;;;;;;;41.40;23.80;;;11.00;88.60;;;;;;5054031;28;20424;-37
2021/09/23 04:55:33;;;;;;;38.70;22.98;;;11.00;88.70;;;;;;5053375;28;20545;-36
2021/09/23 04:58:00;;;;;;;34.92;21.17;;;10.90;88.60;;;;;;5053056;28;20053;-36
2021/09/23 05:00:26;;;;;;;36.53;22.63;;;10.90;89.10;;;;;;5053321;28;20481;-36
2021/09/23 05:02:53;;;;;;;37.45;22.75;;;10.90;89.10;;;;;;5053366;28;20029;-36
2021/09/23 05:05:19;;;;;;;37.03;22.50;;;10.90;89.10;;;;;;5052945;28;20315;-36
2021/09/23 05:07:44;;;;;;;41.78;23.85;;;10.90;89.30;;;;;;5053255;28;20036;-36
2021/09/23 05:10:10;;;;;;;33.30;21.75;;;11.10;89.50;;;;;;5051566;28;20021;-36
2021/09/23 05:12:36;;;;;;;39.08;23.15;;;11.00;89.00;;;;;;5052884;28;20100;-36
2021/09/23 05:15:02;;;;;;;35.53;22.63;;;11.00;88.90;;;;;;5052742;28;20029;-36
2021/09/23 05:17:28;;;;;;;40.53;21.95;;;10.90;89.00;;;;;;5052241;28;20053;-36
2021/09/23 05:19:55;;;;;;;34.70;22.58;;;10.90;89.20;;;;;;5052856;28;20142;-36
2021/09/23 05:22:24;;;;;;;35.85;22.52;;;11.00;89.40;;;;;;5052555;28;20036;-36
2021/09/23 05:24:51;;;;;;;31.23;21.55;;;11.00;89.20;;;;;;5052460;28;20021;-37
2021/09/23 05:27:17;;;;;;;33.55;18.92;;;11.00;89.20;;;;;;5052576;28;20016;-37
2021/09/23 05:29:43;;;;;;;39.10;20.73;;;11.00;89.20;;;;;;5053301;28;20021;-37
2021/09/23 05:32:09;;;;;;;34.47;19.30;;;11.00;89.40;;;;;;5052613;28;20029;-37
2021/09/23 05:34:34;;;;;;;36.85;20.88;;;11.10;89.10;;;;;;5051369;28;20020;-37
2021/09/23 05:37:00;;;;;;;43.17;23.02;;;11.10;88.90;;;;;;5052580;28;20020;-37
2021/09/23 05:39:26;;;;;;;32.78;19.40;;;11.10;88.80;;;;;;5052607;28;20028;-37
2021/09/23 05:41:52;;;;;;;35.50;19.55;;;11.10;88.90;;;;;;5052916;28;20017;-36
2021/09/23 05:44:23;;;;;;;35.47;20.15;;;11.10;88.80;;;;;;5052522;28;20025;-37
2021/09/23 05:46:50;;;;;;;32.38;19.80;;;11.10;88.80;;;;;;5052410;28;20025;-38
2021/09/23 05:49:16;;;;;;;33.67;20.20;;;11.10;88.80;;;;;;5052204;28;20104;-46
2021/09/23 05:51:42;;;;;;;32.53;17.90;;;11.10;89.30;;;;;;5052361;28;20055;-36
2021/09/23 05:54:07;;;;;;;31.95;17.33;;;11.10;89.40;;;;;;5052159;28;20053;-37
2021/09/23 05:56:33;;;;;;;29.33;17.77;;;11.10;89.50;;;;;;5052732;28;20035;-37
2021/09/23 05:58:59;;;;;;;27.42;15.65;;;11.10;89.50;;;;;;5052393;28;20170;-36
2021/09/23 06:01:25;;;;;;;28.92;16.75;;;11.10;89.50;;;;;;5052716;28;20060;-37
2021/09/23 06:03:50;;;;;;;24.65;15.75;;;11.10;89.50;;;;;;5052510;28;20029;-38
2021/09/23 06:06:16;;;;;;;27.30;15.52;;;11.20;89.40;;;;;;5052323;28;20044;-38
2021/09/23 06:08:42;;;;;;;25.25;14.68;;;11.30;89.20;;;;;;5052416;28;20021;-41
2021/09/23 06:11:09;;;;;;;25.13;14.90;;;11.30;88.80;;;;;;5052555;28;20025;-38
2021/09/23 06:13:35;;;;;;;28.85;17.33;;;11.30;88.90;;;;;;5052132;28;20025;-37
2021/09/23 06:16:01;;;;;;;28.13;16.30;;;11.50;88.60;;;;;;5053651;28;20025;-38
2021/09/23 06:18:26;;;;;;;23.70;16.27;;;11.60;88.00;;;;;;5055890;28;20497;-38
2021/09/23 06:20:52;;;;;;;23.73;16.48;;;11.60;87.90;;;;;;5054654;28;20112;-37
2021/09/23 06:23:18;;;;;;;27.50;15.52;;;11.70;87.70;;;;;;5055971;28;20491;-37
2021/09/23 06:25:43;;;;;;;27.65;15.93;;;11.80;87.20;;;;;;5055935;28;20025;-38
2021/09/23 06:28:10;;;;;;;23.63;14.95;;;11.80;87.10;;;;;;5055702;28;20377;-38
2021/09/23 06:30:37;;;;;;;27.88;14.85;;;11.80;87.20;;;;;;5055611;28;20035;-37
2021/09/23 06:33:03;;;;;;;26.50;14.77;;;11.80;87.10;;;;;;5055785;28;20048;-37
2021/09/23 06:35:29;;;;;;;23.35;13.43;;;12.00;86.70;;;;;;5055635;28;20123;-37
2021/09/23 06:37:54;;;;;;;27.02;15.13;;;12.10;86.10;;;;;;5056079;28;20104;-37
2021/09/23 06:40:20;;;;;;;21.42;14.20;;;12.10;85.80;;;;;;5056059;28;20532;-36
2021/09/23 06:42:46;;;;;;;20.58;13.43;;;12.30;85.50;;;;;;5055820;28;20177;-38
2021/09/23 06:45:13;;;;;;;20.65;13.30;;;12.30;85.50;;;;;;5054091;28;20027;-36
2021/09/23 06:47:39;;;;;;;21.30;11.52;;;12.40;85.10;;;;;;5054322;28;20057;-37
2021/09/23 06:50:05;;;;;;;18.92;13.27;;;12.50;84.70;;;;;;5053989;28;20073;-38
2021/09/23 06:52:30;;;;;;;23.95;13.80;;;12.50;84.60;;;;;;5055518;28;20025;-37
2021/09/23 06:54:56;;;;;;;22.77;13.32;;;12.60;84.30;;;;;;5055199;28;20426;-38
2021/09/23 06:57:22;;;;;;;19.67;13.25;;;12.70;84.10;;;;;;5055001;28;20530;-38
2021/09/23 06:59:47;;;;;;;17.20;12.07;;;12.80;83.60;;;;;;5055155;28;20036;-37
2021/09/23 07:02:13;;;;;;;26.13;13.32;;;12.80;83.50;;;;;;5055454;28;20370;-36
2021/09/23 07:04:39;;;;;;;23.33;12.23;;;13.00;83.00;;;;;;5055964;28;20029;-39
2021/09/23 07:07:05;;;;;;;21.55;11.77;;;13.00;83.20;;;;;;5055340;28;20021;-37
2021/09/23 07:09:30;;;;;;;23.45;12.23;;;13.10;82.60;;;;;;5053887;28;20032;-37
2021/09/23 07:11:56;;;;;;;21.85;12.35;;;13.30;81.90;;;;;;5055538;28;20441;-37
2021/09/23 07:14:22;;;;;;;29.08;12.98;;;13.30;81.70;;;;;;5054983;28;20017;-37
2021/09/23 07:16:48;;;;;;;20.90;11.23;;;13.50;81.40;;;;;;5055168;28;20028;-37
2021/09/23 07:19:14;;;;;;;19.13;12.30;;;13.60;81.00;;;;;;5054603;28;20045;-37
2021/09/23 07:21:40;;;;;;;24.65;13.23;;;13.80;80.10;;;;;;5055066;28;20090;-36
2021/09/23 07:24:08;;;;;;;26.33;12.65;;;13.80;79.30;;;;;;5054936;28;20040;-38
2021/09/23 07:26:34;;;;;;;24.30;14.00;;;14.10;78.80;;;;;;5054721;28;20461;-37
2021/09/23 07:29:00;;;;;;;24.08;12.45;;;14.30;77.90;;;;;;5052608;28;20104;-37
2021/09/23 07:31:26;;;;;;;22.77;13.57;;;14.40;76.60;;;;;;5054674;28;20021;-37
2021/09/23 07:33:52;;;;;;;23.42;12.55;;;14.40;76.40;;;;;;5054401;28;20025;-37
2021/09/23 07:36:18;;;;;;;26.73;14.45;;;14.40;76.30;;;;;;5053744;28;20139;-38
2021/09/23 07:38:44;;;;;;;21.85;13.90;;;14.50;76.00;;;;;;5053263;28;20534;-37
2021/09/23 07:41:10;;;;;;;22.83;13.48;;;14.50;75.90;;;;;;5055029;28;20029;-37
2021/09/23 07:43:36;;;;;;;17.52;12.48;;;14.60;75.50;;;;;;5054556;28;20138;-37
2021/09/23 07:46:02;;;;;;;29.20;15.63;;;14.80;75.30;;;;;;5052600;28;20547;-37
2021/09/23 07:48:28;;;;;;;21.42;13.43;;;14.90;74.60;;;;;;5054230;28;20025;-38
2021/09/23 07:50:54;;;;;;;21.88;12.02;;;14.90;74.50;;;;;;5036456;28;20021;-38
2021/09/23 07:53:20;;;;;;;25.30;12.95;;;15.00;74.10;;;;;;5054429;28;20501;-38
2021/09/23 07:55:47;;;;;;;23.10;12.27;;;15.10;74.00;;;;;;5054447;28;20029;-37
2021/09/23 07:58:12;;;;;;;29.50;13.57;;;15.30;73.20;;;;;;5036762;28;20373;-36
2021/09/23 08:00:39;;;;;;;20.80;13.75;;;15.30;73.20;;;;;;5053942;28;20112;-36
2021/09/23 08:03:05;;;;;;;24.23;11.35;;;15.30;73.30;;;;;;5053567;28;20027;-37
2021/09/23 08:05:31;;;;;;;21.45;12.93;;;15.40;72.60;;;;;;5053742;28;20508;-36
2021/09/23 08:07:57;;;;;;;22.48;13.10;;;15.50;72.00;;;;;;5053989;28;20021;-37
2021/09/23 08:10:23;;;;;;;18.52;12.10;;;15.60;71.80;;;;;;5052401;28;20021;-37
2021/09/23 08:12:49;;;;;;;14.93;9.27;;;15.90;70.70;;;;;;5054420;28;20211;-37
2021/09/23 08:15:15;;;;;;;18.38;11.55;;;16.00;70.10;;;;;;5053201;28;20064;-37
2021/09/23 08:17:42;;;;;;;22.55;11.63;;;16.50;68.00;;;;;;5051977;28;20083;-38
2021/09/23 08:20:08;;;;;;;16.67;9.63;;;16.70;67.50;;;;;;5053518;28;20033;-38
2021/09/23 08:22:34;;;;;;;18.75;10.43;;;16.60;67.70;;;;;;5053787;28;20059;-38
2021/09/23 08:24:59;;;;;;;19.65;10.98;;;16.90;66.80;;;;;;5053904;28;20088;-38
2021/09/23 08:27:25;;;;;;;15.93;9.30;;;17.30;65.60;;;;;;5053641;28;20024;-37
2021/09/23 08:29:51;;;;;;;17.00;9.10;;;17.30;65.10;;;;;;5053252;28;20021;-37
2021/09/23 08:32:20;;;;;;;26.92;11.20;;;17.40;64.70;;;;;;5053252;28;20166;-37
2021/09/23 08:34:49;;;;;;;14.52;9.80;;;17.30;64.30;;;;;;5053234;28;20021;-38
2021/09/23 08:37:15;;;;;;;15.75;10.68;;;17.30;64.60;;;;;;5053136;28;20421;-37
2021/09/23 08:39:43;;;;;;;13.43;9.27;;;17.80;63.00;;;;;;5052802;28;20491;-38
2021/09/23 08:42:09;;;;;;;19.50;10.18;;;17.90;62.30;;;;;;5052007;28;20138;-37
2021/09/23 08:44:36;;;;;;;15.88;9.43;;;18.30;60.90;;;;;;5053006;28;20497;-37
2021/09/23 08:47:02;;;;;;;19.65;9.73;;;17.80;61.80;;;;;;5052607;28;20437;-37
2021/09/23 08:49:28;;;;;;;15.73;9.48;;;17.90;61.50;;;;;;5052778;28;20018;-37
2021/09/23 08:51:54;;;;;;;15.57;8.60;;;18.00;61.20;;;;;;5053173;28;20039;-37
2021/09/23 08:54:21;;;;;;;16.88;10.30;;;18.40;60.40;;;;;;5052638;28;20096;-38
2021/09/23 08:56:47;;;;;;;14.90;9.40;;;18.20;60.90;;;;;;5053764;28;20055;-37
2021/09/23 08:59:13;;;;;;;14.15;9.43;;;18.50;59.20;;;;;;5053805;28;20382;-39
2021/09/23 09:01:48;;;;;;;13.77;8.68;;;18.10;60.00;;;;;;5035519;28;20032;-37
2021/09/23 09:04:13;;;;;;;16.45;9.85;;;18.30;60.20;;;;;;5051496;28;20037;-37
2021/09/23 09:06:56;;;;;;;18.23;9.73;;;18.60;59.00;;;;;;5051596;28;20028;-37
2021/09/23 09:09:22;;;;;;;15.88;9.57;;;18.60;59.40;;;;;;5053070;28;20028;-39
2021/09/23 09:11:55;;;;;;;15.18;8.48;;;18.50;59.50;;;;;;5052607;28;20055;-38
2021/09/23 09:14:24;;;;;;;20.02;7.85;;;19.00;58.40;;;;;;5053068;28;20017;-37
2021/09/23 09:16:55;;;;;;;14.18;8.90;;;19.10;58.20;;;;;;5053559;28;20492;-37
2021/09/23 09:19:20;;;;;;;;;;;19.50;56.90;;;;;;5051933;28;20128;-38
2021/09/23 09:21:47;;;;;;;12.82;8.10;;;19.40;57.10;;;;;;5051341;28;20512;-38
2021/09/23 09:24:17;;;;;;;14.95;9.68;;;19.10;57.40;;;;;;5053049;28;20074;-38
2021/09/23 09:26:43;;;;;;;12.98;8.02;;;19.10;58.30;;;;;;5052293;28;20025;-37
2021/09/23 09:29:12;;;;;;;15.82;9.40;;;19.30;57.90;;;;;;5052189;28;20029;-37
2021/09/23 09:31:46;;;;;;;13.55;7.78;;;19.30;57.70;;;;;;5052292;28;20460;-37
2021/09/23 09:34:12;;;;;;;14.32;8.73;;;19.90;56.10;;;;;;5052256;28;20021;-37
2021/09/23 09:36:40;;;;;;;15.45;8.43;;;20.00;55.70;;;;;;5051411;28;20033;-37
2021/09/23 09:39:16;;;;;;;15.23;7.85;;;19.60;56.20;;;;;;5051616;28;20061;-38
2021/09/23 09:41:44;;;;;;;15.30;8.65;;;19.60;56.10;;;;;;5052338;28;20028;-41
2021/09/23 09:44:13;;;;;;;17.60;8.18;;;19.50;56.10;;;;;;5052425;28;20036;-37
2021/09/23 09:46:48;;;;;;;11.15;6.35;;;19.40;56.40;;;;;;5050654;28;20044;-37
2021/09/23 09:49:14;;;;;;;19.67;8.13;;;19.60;55.60;;;;;;5052504;28;20021;-37
2021/09/23 09:51:43;;;;;;;14.13;6.65;;;20.20;54.30;;;;;;5051838;28;20024;-38
2021/09/23 09:54:11;;;;;;;12.35;8.02;;;20.20;53.90;;;;;;5052874;28;20029;-39
2021/09/23 09:56:42;;;;;;;11.25;6.78;;;20.80;52.50;;;;;;5051022;28;20539;-38
2021/09/23 09:59:13;;;;;;;16.65;7.05;;;20.40;52.60;;;;;;5052669;28;20036;-38
2021/09/23 10:01:39;;;;;;;;;;;19.90;54.00;;;;;;5052459;28;20060;-38
2021/09/23 10:04:05;;;;;;;12.20;6.82;;;19.60;55.40;;;;;;5052025;28;20275;-38
2021/09/23 10:06:32;;;;;;;10.30;7.30;;;19.50;55.90;;;;;;5052303;28;20119;-43
2021/09/23 10:08:58;;;;;;;11.98;6.50;;;19.40;56.70;;;;;;5052121;28;20032;-38
2021/09/23 10:11:25;;;;;;;10.80;7.65;;;19.40;56.30;;;;;;5052451;28;20021;-37
2021/09/23 10:13:53;;;;;;;12.77;7.00;;;19.90;55.30;;;;;;5051057;28;20033;-36
2021/09/23 10:16:20;;;;;;;11.30;6.68;;;19.60;56.40;;;;;;5052016;28;20033;-37
2021/09/23 10:18:48;;;;;;;17.27;6.78;;;19.80;56.20;;;;;;5051895;28;20055;-37
2021/09/23 10:21:15;;;;;;;9.27;7.10;;;19.80;56.00;;;;;;5052201;28;20118;-39
2021/09/23 10:23:42;;;;;;;12.13;7.45;;;19.30;57.90;;;;;;5052088;28;20024;-37
2021/09/23 10:26:09;;;;;;;13.18;8.40;;;19.10;59.50;;;;;;5050561;28;20514;-36
2021/09/23 10:28:36;;;;;;;15.98;9.60;;;19.40;58.90;;;;;;5052299;28;20423;-37
2021/09/23 10:31:09;;;;;;;14.85;9.07;;;19.60;58.60;;;;;;5051798;28;20021;-36
2021/09/23 10:33:38;;;;;;;11.25;8.23;;;19.80;58.80;;;;;;5052162;28;20104;-36
2021/09/23 10:36:10;;;;;;;16.40;9.20;;;19.90;58.50;;;;;;5052192;28;20108;-37
2021/09/23 10:38:37;;;;;;;14.30;10.38;;;20.20;58.00;;;;;;5052226;28;20142;-37
2021/09/23 10:41:03;;;;;;;14.45;8.60;;;20.00;59.00;;;;;;5050964;28;20032;-38
2021/09/23 10:43:30;;;;;;;14.60;9.48;;;21.10;56.10;;;;;;5050640;28;20029;-39
2021/09/23 10:45:56;;;;;;;15.30;9.07;;;21.00;56.40;;;;;;5051702;28;20027;-38
2021/09/23 10:48:23;;;;;;;13.10;8.20;;;21.20;56.00;;;;;;5051432;28;20113;-37
2021/09/23 10:50:49;;;;;;;20.92;9.43;;;21.70;55.10;;;;;;5049602;28;20362;-37
2021/09/23 10:53:17;;;;;;;19.05;9.15;;;21.80;54.40;;;;;;5052256;28;20167;-37
2021/09/23 10:55:43;;;;;;;14.70;10.23;;;21.60;55.50;;;;;;5052132;28;20025;-37
2021/09/23 10:58:11;;;;;;;17.10;10.23;;;21.10;56.70;;;;;;5052000;28;20043;-37
2021/09/23 11:00:38;;;;;;;17.65;10.00;;;20.70;58.70;;;;;;5051967;28;20489;-37
2021/09/23 11:03:09;;;;;;;15.65;9.70;;;20.80;57.50;;;;;;5054774;28;20029;-38
2021/09/23 11:05:36;;;;;;;16.30;9.45;;;21.30;57.50;;;;;;5055606;28;20021;-39
2021/09/23 11:08:09;;;;;;;16.60;10.73;;;21.20;57.30;;;;;;5055737;28;20027;-37
2021/09/23 11:10:39;;;;;;;19.83;10.23;;;21.10;57.10;;;;;;5055338;28;20027;-37
2021/09/23 11:13:05;;;;;;;13.02;8.48;;;21.00;57.60;;;;;;5053616;28;20029;-37
2021/09/23 11:15:31;;;;;;;15.75;8.77;;;20.70;58.90;;;;;;5053881;28;20029;-37
2021/09/23 11:18:00;;;;;;;15.10;8.95;;;21.40;57.30;;;;;;5054899;28;20052;-37
2021/09/23 11:20:31;;;;;;;22.70;10.68;;;21.70;55.20;;;;;;5053817;28;20065;-37
2021/09/23 11:23:04;;;;;;;16.48;9.80;;;21.10;55.90;;;;;;5055157;28;20493;-37
2021/09/23 11:25:35;;;;;;;14.75;10.02;;;20.60;57.10;;;;;;5054732;28;20465;-37
2021/09/23 11:28:02;;;;;;;18.70;10.00;;;20.60;57.80;;;;;;5054151;28;20028;-38
2021/09/23 11:30:30;;;;;;;16.05;9.32;;;20.70;57.80;;;;;;5054635;28;20025;-38
2021/09/23 11:33:04;;;;;;;15.13;10.27;;;20.60;58.40;;;;;;5054718;28;20036;-38
2021/09/23 11:35:33;;;;;;;17.05;9.18;;;20.80;57.80;;;;;;5055019;28;20044;-37
2021/09/23 11:37:59;;;;;;;15.32;9.98;;;21.30;57.20;;;;;;5054862;28;20025;-38
2021/09/23 11:40:31;;;;;;;14.48;10.05;;;21.60;56.10;;;;;;5054480;28;20108;-38
2021/09/23 11:42:59;;;;;;;19.35;10.32;;;21.30;56.70;;;;;;5052523;28;20487;-38
2021/09/23 11:45:28;;;;;;;23.13;11.02;;;21.70;55.40;;;;;;5054531;28;20112;-37
2021/09/23 11:47:56;;;;;;;19.33;9.40;;;21.80;56.50;;;;;;5053209;28;20033;-37
2021/09/23 11:50:36;;;;;;;12.32;8.30;;;23.20;52.90;;;;;;5054252;28;20029;-37
2021/09/23 11:53:04;;;;;;;14.32;9.38;;;23.60;50.30;;;;;;5054239;28;20021;-37
2021/09/23 11:55:30;;;;;;;13.32;10.15;;;23.40;50.80;;;;;;5054070;28;20093;-37
2021/09/23 11:58:01;;;;;;;14.13;9.23;;;22.40;52.70;;;;;;5054034;28;20124;-37
2021/09/23 12:00:32;;;;;;;13.63;11.00;;;21.60;55.00;;;;;;5053703;28;20112;-38
2021/09/23 12:02:58;;;;;;;20.23;10.05;;;21.40;56.00;;;;;;5054266;28;20029;-38
2021/09/23 12:05:28;;;;;;;12.93;8.02;;;21.40;56.50;;;;;;5054450;28;20464;-38
2021/09/23 12:07:54;;;;;;;15.38;8.55;;;21.30;56.70;;;;;;5054115;28;20522;-38
2021/09/23 12:10:22;;;;;;;18.48;10.00;;;20.80;57.90;;;;;;5052793;28;20028;-37
2021/09/23 12:12:56;;;;;;;19.38;10.68;;;20.50;58.60;;;;;;5053650;28;20100;-38
2021/09/23 12:15:23;;;;;;;15.52;9.57;;;20.80;57.00;;;;;;5053347;28;20180;-37
2021/09/23 12:17:56;;;;;;;17.65;10.05;;;20.70;57.70;;;;;;5053832;28;20098;-37
2021/09/23 12:20:40;;;;;;;20.25;10.20;;;20.40;58.60;;;;;;5055006;28;20039;-37
2021/09/23 12:23:24;;;;;;;14.10;9.40;;;20.70;58.50;;;;;;5053747;28;20029;-37
2021/09/23 12:26:09;;;;;;;16.58;9.80;;;20.10;60.00;;;;;;5053459;28;20025;-37
2021/09/23 12:28:54;;;;;;;13.85;10.75;;;20.10;60.70;;;;;;5054363;28;20469;-37
2021/09/23 12:31:36;;;;;;;14.27;8.73;;;20.00;61.30;;;;;;5053582;28;20029;-39